sensor_id;sensor_type;location;lat;lon;timestamp;P1;durP1;ratioP1;P2;durP2;ratioP2
27889;SDS011;15238;49.082;9.102;2022-07-11T00:00:11;1.50;;;1.20;;
27889;SDS011;15238;49.082;9.102;2022-07-11T00:02:14;1.50;;;1.20;;
27889;SDS011;15238;49.082;9.102;2022-07-11T00:04:15;4.03;;;1.35;;
27889;SDS011;15238;49.082;9.102;2022-07-11T00:06:16;2.47;;;1.45;;
27889;SDS011;15238;49.082;9.102;2022-07-11T00:08:16;1.90;;;1.15;;
27889;SDS011;15238;49.082;9.102;2022-07-11T00:10:17;1.65;;;1.27;;
27889;SDS011;15238;49.082;9.102;2022-07-11T00:12:17;1.50;;;1.20;;
27889;SDS011;15238;49.082;9.102;2022-07-11T00:14:20;2.05;;;1.45;;
27889;SDS011;15238;49.082;9.102;2022-07-11T00:16:22;1.67;;;1.50;;
27889;SDS011;15238;49.082;9.102;2022-07-11T00:18:22;2.50;;;1.70;;
27889;SDS011;15238;49.082;9.102;2022-07-11T00:20:23;3.28;;;1.95;;
27889;SDS011;15238;49.082;9.102;2022-07-11T00:22:24;2.35;;;1.70;;
27889;SDS011;15238;49.082;9.102;2022-07-11T00:24:25;4.72;;;2.30;;
27889;SDS011;15238;49.082;9.102;2022-07-11T00:26:26;2.40;;;1.92;;
27889;SDS011;15238;49.082;9.102;2022-07-11T00:28:27;3.55;;;1.70;;
27889;SDS011;15238;49.082;9.102;2022-07-11T00:30:27;2.42;;;1.92;;
27889;SDS011;15238;49.082;9.102;2022-07-11T00:32:28;3.17;;;1.67;;
27889;SDS011;15238;49.082;9.102;2022-07-11T00:34:28;2.05;;;1.60;;
27889;SDS011;15238;49.082;9.102;2022-07-11T00:36:29;1.60;;;1.50;;
27889;SDS011;15238;49.082;9.102;2022-07-11T00:38:31;1.52;;;1.40;;
27889;SDS011;15238;49.082;9.102;2022-07-11T00:40:32;2.45;;;1.90;;
27889;SDS011;15238;49.082;9.102;2022-07-11T00:42:32;2.28;;;1.83;;
27889;SDS011;15238;49.082;9.102;2022-07-11T00:44:33;3.42;;;1.63;;
27889;SDS011;15238;49.082;9.102;2022-07-11T00:46:36;2.95;;;1.60;;
27889;SDS011;15238;49.082;9.102;2022-07-11T00:48:36;3.90;;;1.92;;
27889;SDS011;15238;49.082;9.102;2022-07-11T00:50:37;1.98;;;1.52;;
27889;SDS011;15238;49.082;9.102;2022-07-11T00:52:38;2.38;;;1.30;;
27889;SDS011;15238;49.082;9.102;2022-07-11T00:54:40;2.83;;;1.38;;
27889;SDS011;15238;49.082;9.102;2022-07-11T00:56:41;1.90;;;1.60;;
27889;SDS011;15238;49.082;9.102;2022-07-11T00:58:41;5.25;;;1.48;;
27889;SDS011;15238;49.082;9.102;2022-07-11T01:00:42;3.65;;;1.40;;
27889;SDS011;15238;49.082;9.102;2022-07-11T01:02:43;2.00;;;1.80;;
27889;SDS011;15238;49.082;9.102;2022-07-11T01:04:44;2.50;;;1.35;;
27889;SDS011;15238;49.082;9.102;2022-07-11T01:06:44;2.28;;;1.50;;
27889;SDS011;15238;49.082;9.102;2022-07-11T01:08:45;1.67;;;1.40;;
27889;SDS011;15238;49.082;9.102;2022-07-11T01:10:46;1.95;;;1.48;;
27889;SDS011;15238;49.082;9.102;2022-07-11T01:12:47;1.75;;;1.23;;
27889;SDS011;15238;49.082;9.102;2022-07-11T01:14:54;1.35;;;1.20;;
27889;SDS011;15238;49.082;9.102;2022-07-11T01:16:55;4.22;;;1.50;;
27889;SDS011;15238;49.082;9.102;2022-07-11T01:18:55;1.38;;;1.23;;
27889;SDS011;15238;49.082;9.102;2022-07-11T01:20:56;2.92;;;1.45;;
27889;SDS011;15238;49.082;9.102;2022-07-11T01:23:03;3.20;;;1.23;;
27889;SDS011;15238;49.082;9.102;2022-07-11T01:25:05;1.58;;;1.05;;
27889;SDS011;15238;49.082;9.102;2022-07-11T01:27:07;1.88;;;1.40;;
27889;SDS011;15238;49.082;9.102;2022-07-11T01:29:08;5.30;;;1.38;;
27889;SDS011;15238;49.082;9.102;2022-07-11T01:31:10;1.88;;;1.23;;
27889;SDS011;15238;49.082;9.102;2022-07-11T01:33:12;2.38;;;1.30;;
27889;SDS011;15238;49.082;9.102;2022-07-11T01:35:12;1.58;;;1.23;;
27889;SDS011;15238;49.082;9.102;2022-07-11T01:37:13;1.40;;;1.30;;
27889;SDS011;15238;49.082;9.102;2022-07-11T01:39:13;1.83;;;1.40;;
27889;SDS011;15238;49.082;9.102;2022-07-11T01:41:14;1.50;;;1.33;;
27889;SDS011;15238;49.082;9.102;2022-07-11T01:43:15;1.55;;;1.30;;
27889;SDS011;15238;49.082;9.102;2022-07-11T01:45:15;1.40;;;1.30;;
27889;SDS011;15238;49.082;9.102;2022-07-11T01:47:16;2.70;;;1.40;;
27889;SDS011;15238;49.082;9.102;2022-07-11T01:49:16;1.52;;;1.17;;
27889;SDS011;15238;49.082;9.102;2022-07-11T01:51:17;2.67;;;1.30;;
27889;SDS011;15238;49.082;9.102;2022-07-11T01:53:18;1.58;;;1.48;;
27889;SDS011;15238;49.082;9.102;2022-07-11T01:55:18;2.45;;;1.25;;
27889;SDS011;15238;49.082;9.102;2022-07-11T01:57:19;2.78;;;1.20;;
27889;SDS011;15238;49.082;9.102;2022-07-11T01:59:19;1.10;;;0.98;;
27889;SDS011;15238;49.082;9.102;2022-07-11T02:01:20;1.65;;;1.40;;
27889;SDS011;15238;49.082;9.102;2022-07-11T02:03:21;1.23;;;1.13;;
27889;SDS011;15238;49.082;9.102;2022-07-11T02:05:21;1.73;;;1.50;;
27889;SDS011;15238;49.082;9.102;2022-07-11T02:07:22;5.25;;;1.20;;
27889;SDS011;15238;49.082;9.102;2022-07-11T02:09:42;1.98;;;1.42;;
27889;SDS011;15238;49.082;9.102;2022-07-11T02:11:43;6.03;;;1.83;;
27889;SDS011;15238;49.082;9.102;2022-07-11T02:13:43;1.75;;;1.50;;
27889;SDS011;15238;49.082;9.102;2022-07-11T02:15:44;2.17;;;1.60;;
27889;SDS011;15238;49.082;9.102;2022-07-11T02:17:46;1.70;;;1.60;;
27889;SDS011;15238;49.082;9.102;2022-07-11T02:19:46;1.95;;;1.60;;
27889;SDS011;15238;49.082;9.102;2022-07-11T02:21:47;2.95;;;1.60;;
27889;SDS011;15238;49.082;9.102;2022-07-11T02:23:47;1.90;;;1.77;;
27889;SDS011;15238;49.082;9.102;2022-07-11T02:25:48;2.40;;;1.60;;
27889;SDS011;15238;49.082;9.102;2022-07-11T02:27:48;2.25;;;1.70;;
27889;SDS011;15238;49.082;9.102;2022-07-11T02:29:50;2.90;;;1.63;;
27889;SDS011;15238;49.082;9.102;2022-07-11T02:31:50;1.77;;;1.63;;
27889;SDS011;15238;49.082;9.102;2022-07-11T02:33:51;3.03;;;1.60;;
27889;SDS011;15238;49.082;9.102;2022-07-11T02:35:51;2.45;;;1.75;;
27889;SDS011;15238;49.082;9.102;2022-07-11T02:37:52;2.30;;;1.50;;
27889;SDS011;15238;49.082;9.102;2022-07-11T02:39:52;6.82;;;1.77;;
27889;SDS011;15238;49.082;9.102;2022-07-11T02:41:53;2.00;;;1.85;;
27889;SDS011;15238;49.082;9.102;2022-07-11T02:43:53;5.38;;;1.50;;
27889;SDS011;15238;49.082;9.102;2022-07-11T02:45:54;2.22;;;1.70;;
27889;SDS011;15238;49.082;9.102;2022-07-11T02:47:55;2.08;;;1.48;;
27889;SDS011;15238;49.082;9.102;2022-07-11T02:49:55;1.63;;;1.20;;
27889;SDS011;15238;49.082;9.102;2022-07-11T02:51:56;2.72;;;1.48;;
27889;SDS011;15238;49.082;9.102;2022-07-11T02:53:57;2.03;;;1.60;;
27889;SDS011;15238;49.082;9.102;2022-07-11T02:55:57;1.83;;;1.73;;
27889;SDS011;15238;49.082;9.102;2022-07-11T02:57:57;1.52;;;1.42;;
27889;SDS011;15238;49.082;9.102;2022-07-11T02:59:58;1.75;;;1.23;;
27889;SDS011;15238;49.082;9.102;2022-07-11T03:01:59;2.15;;;1.60;;
27889;SDS011;15238;49.082;9.102;2022-07-11T03:03:59;2.78;;;2.22;;
27889;SDS011;15238;49.082;9.102;2022-07-11T03:06:00;2.85;;;1.98;;
27889;SDS011;15238;49.082;9.102;2022-07-11T03:08:00;3.00;;;1.42;;
27889;SDS011;15238;49.082;9.102;2022-07-11T03:10:01;2.55;;;1.50;;
27889;SDS011;15238;49.082;9.102;2022-07-11T03:12:02;5.28;;;1.52;;
27889;SDS011;15238;49.082;9.102;2022-07-11T03:14:03;1.83;;;1.20;;
27889;SDS011;15238;49.082;9.102;2022-07-11T03:16:04;3.60;;;1.70;;
27889;SDS011;15238;49.082;9.102;2022-07-11T03:18:05;1.80;;;1.70;;
27889;SDS011;15238;49.082;9.102;2022-07-11T03:20:06;2.75;;;1.60;;
27889;SDS011;15238;49.082;9.102;2022-07-11T03:22:07;1.45;;;1.35;;
27889;SDS011;15238;49.082;9.102;2022-07-11T03:24:08;1.65;;;1.55;;
27889;SDS011;15238;49.082;9.102;2022-07-11T03:26:08;1.42;;;1.33;;
27889;SDS011;15238;49.082;9.102;2022-07-11T03:28:09;2.33;;;1.45;;
27889;SDS011;15238;49.082;9.102;2022-07-11T03:30:09;1.60;;;1.45;;
27889;SDS011;15238;49.082;9.102;2022-07-11T03:32:10;1.60;;;1.50;;
27889;SDS011;15238;49.082;9.102;2022-07-11T03:34:11;1.75;;;1.50;;
27889;SDS011;15238;49.082;9.102;2022-07-11T03:36:11;1.88;;;1.60;;
27889;SDS011;15238;49.082;9.102;2022-07-11T03:38:12;1.88;;;1.77;;
27889;SDS011;15238;49.082;9.102;2022-07-11T03:40:17;2.00;;;1.50;;
27889;SDS011;15238;49.082;9.102;2022-07-11T03:42:17;1.75;;;1.65;;
27889;SDS011;15238;49.082;9.102;2022-07-11T03:44:18;1.50;;;1.40;;
27889;SDS011;15238;49.082;9.102;2022-07-11T03:46:19;1.80;;;1.70;;
27889;SDS011;15238;49.082;9.102;2022-07-11T03:48:19;1.55;;;1.45;;
27889;SDS011;15238;49.082;9.102;2022-07-11T03:50:20;2.00;;;1.80;;
27889;SDS011;15238;49.082;9.102;2022-07-11T03:52:21;1.67;;;1.45;;
27889;SDS011;15238;49.082;9.102;2022-07-11T03:54:21;1.60;;;1.50;;
27889;SDS011;15238;49.082;9.102;2022-07-11T03:56:22;2.25;;;1.55;;
27889;SDS011;15238;49.082;9.102;2022-07-11T03:58:22;1.95;;;1.75;;
27889;SDS011;15238;49.082;9.102;2022-07-11T04:00:23;2.58;;;2.00;;
27889;SDS011;15238;49.082;9.102;2022-07-11T04:02:23;2.58;;;1.75;;
27889;SDS011;15238;49.082;9.102;2022-07-11T04:04:24;1.67;;;1.58;;
27889;SDS011;15238;49.082;9.102;2022-07-11T04:06:24;1.95;;;1.65;;
27889;SDS011;15238;49.082;9.102;2022-07-11T04:08:25;4.82;;;2.22;;
27889;SDS011;15238;49.082;9.102;2022-07-11T04:10:26;3.80;;;1.83;;
27889;SDS011;15238;49.082;9.102;2022-07-11T04:12:26;2.08;;;1.80;;
27889;SDS011;15238;49.082;9.102;2022-07-11T04:14:27;2.33;;;2.00;;
27889;SDS011;15238;49.082;9.102;2022-07-11T04:16:27;6.47;;;1.88;;
27889;SDS011;15238;49.082;9.102;2022-07-11T04:18:28;2.03;;;1.83;;
27889;SDS011;15238;49.082;9.102;2022-07-11T04:20:28;1.98;;;1.77;;
27889;SDS011;15238;49.082;9.102;2022-07-11T04:22:29;4.75;;;1.88;;
27889;SDS011;15238;49.082;9.102;2022-07-11T04:24:30;2.17;;;1.73;;
27889;SDS011;15238;49.082;9.102;2022-07-11T04:26:30;2.25;;;2.00;;
27889;SDS011;15238;49.082;9.102;2022-07-11T04:28:31;2.65;;;2.15;;
27889;SDS011;15238;49.082;9.102;2022-07-11T04:30:32;4.05;;;2.22;;
27889;SDS011;15238;49.082;9.102;2022-07-11T04:32:33;2.42;;;2.08;;
27889;SDS011;15238;49.082;9.102;2022-07-11T04:34:35;2.55;;;2.17;;
27889;SDS011;15238;49.082;9.102;2022-07-11T04:36:36;3.75;;;2.35;;
27889;SDS011;15238;49.082;9.102;2022-07-11T04:38:36;3.05;;;2.50;;
27889;SDS011;15238;49.082;9.102;2022-07-11T04:40:37;4.10;;;2.28;;
27889;SDS011;15238;49.082;9.102;2022-07-11T04:42:37;2.60;;;2.10;;
27889;SDS011;15238;49.082;9.102;2022-07-11T04:44:38;5.20;;;2.40;;
27889;SDS011;15238;49.082;9.102;2022-07-11T04:46:39;3.65;;;2.10;;
27889;SDS011;15238;49.082;9.102;2022-07-11T04:48:39;3.45;;;2.17;;
27889;SDS011;15238;49.082;9.102;2022-07-11T04:50:43;1.90;;;1.80;;
27889;SDS011;15238;49.082;9.102;2022-07-11T04:52:44;3.75;;;2.17;;
27889;SDS011;15238;49.082;9.102;2022-07-11T04:54:45;2.88;;;2.00;;
27889;SDS011;15238;49.082;9.102;2022-07-11T04:56:45;3.60;;;2.05;;
27889;SDS011;15238;49.082;9.102;2022-07-11T04:58:46;2.10;;;1.80;;
27889;SDS011;15238;49.082;9.102;2022-07-11T05:00:46;3.83;;;1.85;;
27889;SDS011;15238;49.082;9.102;2022-07-11T05:02:47;2.85;;;1.98;;
27889;SDS011;15238;49.082;9.102;2022-07-11T05:04:47;2.05;;;1.85;;
27889;SDS011;15238;49.082;9.102;2022-07-11T05:06:48;2.80;;;1.92;;
27889;SDS011;15238;49.082;9.102;2022-07-11T05:08:49;2.22;;;2.00;;
27889;SDS011;15238;49.082;9.102;2022-07-11T05:10:49;2.70;;;1.85;;
27889;SDS011;15238;49.082;9.102;2022-07-11T05:12:50;2.78;;;1.92;;
27889;SDS011;15238;49.082;9.102;2022-07-11T05:14:50;1.90;;;1.80;;
27889;SDS011;15238;49.082;9.102;2022-07-11T05:16:51;1.95;;;1.85;;
27889;SDS011;15238;49.082;9.102;2022-07-11T05:18:51;2.47;;;2.03;;
27889;SDS011;15238;49.082;9.102;2022-07-11T05:20:52;3.58;;;2.08;;
27889;SDS011;15238;49.082;9.102;2022-07-11T05:22:52;1.70;;;1.60;;
27889;SDS011;15238;49.082;9.102;2022-07-11T05:24:53;2.15;;;1.50;;
27889;SDS011;15238;49.082;9.102;2022-07-11T05:26:53;2.08;;;1.80;;
27889;SDS011;15238;49.082;9.102;2022-07-11T05:28:54;2.00;;;1.67;;
27889;SDS011;15238;49.082;9.102;2022-07-11T05:30:54;3.50;;;1.55;;
27889;SDS011;15238;49.082;9.102;2022-07-11T05:32:55;2.95;;;1.80;;
27889;SDS011;15238;49.082;9.102;2022-07-11T05:34:55;3.92;;;1.67;;
27889;SDS011;15238;49.082;9.102;2022-07-11T05:37:02;3.25;;;1.45;;
27889;SDS011;15238;49.082;9.102;2022-07-11T05:39:02;1.58;;;1.48;;
27889;SDS011;15238;49.082;9.102;2022-07-11T05:41:03;2.47;;;1.60;;
27889;SDS011;15238;49.082;9.102;2022-07-11T05:43:04;2.72;;;1.58;;
27889;SDS011;15238;49.082;9.102;2022-07-11T05:45:04;4.07;;;2.13;;
27889;SDS011;15238;49.082;9.102;2022-07-11T05:47:05;2.42;;;1.80;;
27889;SDS011;15238;49.082;9.102;2022-07-11T05:49:06;3.60;;;1.48;;
27889;SDS011;15238;49.082;9.102;2022-07-11T05:51:10;2.65;;;1.58;;
27889;SDS011;15238;49.082;9.102;2022-07-11T05:53:10;2.60;;;1.23;;
27889;SDS011;15238;49.082;9.102;2022-07-11T05:55:12;1.98;;;1.27;;
27889;SDS011;15238;49.082;9.102;2022-07-11T05:57:13;3.35;;;1.20;;
27889;SDS011;15238;49.082;9.102;2022-07-11T05:59:13;1.85;;;1.70;;
27889;SDS011;15238;49.082;9.102;2022-07-11T06:01:14;1.98;;;1.30;;
27889;SDS011;15238;49.082;9.102;2022-07-11T06:03:15;1.42;;;1.33;;
27889;SDS011;15238;49.082;9.102;2022-07-11T06:05:15;1.73;;;1.50;;
27889;SDS011;15238;49.082;9.102;2022-07-11T06:07:16;2.22;;;1.50;;
27889;SDS011;15238;49.082;9.102;2022-07-11T06:09:36;1.58;;;1.48;;
27889;SDS011;15238;49.082;9.102;2022-07-11T06:11:37;3.38;;;1.88;;
27889;SDS011;15238;49.082;9.102;2022-07-11T06:13:41;2.28;;;1.27;;
27889;SDS011;15238;49.082;9.102;2022-07-11T06:15:44;1.63;;;1.23;;
27889;SDS011;15238;49.082;9.102;2022-07-11T06:17:44;1.30;;;1.17;;
27889;SDS011;15238;49.082;9.102;2022-07-11T06:19:45;2.35;;;1.50;;
27889;SDS011;15238;49.082;9.102;2022-07-11T06:21:45;1.55;;;1.42;;
27889;SDS011;15238;49.082;9.102;2022-07-11T06:23:46;1.58;;;1.42;;
27889;SDS011;15238;49.082;9.102;2022-07-11T06:25:47;2.72;;;1.30;;
27889;SDS011;15238;49.082;9.102;2022-07-11T06:27:47;3.75;;;2.00;;
27889;SDS011;15238;49.082;9.102;2022-07-11T06:29:48;4.07;;;1.95;;
27889;SDS011;15238;49.082;9.102;2022-07-11T06:31:48;3.00;;;2.00;;
27889;SDS011;15238;49.082;9.102;2022-07-11T06:33:49;1.95;;;1.60;;
27889;SDS011;15238;49.082;9.102;2022-07-11T06:35:54;2.78;;;1.38;;
27889;SDS011;15238;49.082;9.102;2022-07-11T06:37:55;1.77;;;1.65;;
27889;SDS011;15238;49.082;9.102;2022-07-11T06:39:58;3.00;;;1.55;;
27889;SDS011;15238;49.082;9.102;2022-07-11T06:41:59;2.42;;;1.48;;
27889;SDS011;15238;49.082;9.102;2022-07-11T06:44:00;1.95;;;1.55;;
27889;SDS011;15238;49.082;9.102;2022-07-11T06:46:00;1.85;;;1.63;;
27889;SDS011;15238;49.082;9.102;2022-07-11T06:48:01;2.60;;;1.48;;
27889;SDS011;15238;49.082;9.102;2022-07-11T06:50:02;2.60;;;1.65;;
27889;SDS011;15238;49.082;9.102;2022-07-11T06:52:03;3.50;;;1.55;;
27889;SDS011;15238;49.082;9.102;2022-07-11T06:54:04;2.85;;;1.50;;
27889;SDS011;15238;49.082;9.102;2022-07-11T06:56:04;4.35;;;1.40;;
27889;SDS011;15238;49.082;9.102;2022-07-11T06:58:05;4.75;;;1.63;;
27889;SDS011;15238;49.082;9.102;2022-07-11T07:00:06;1.75;;;1.05;;
27889;SDS011;15238;49.082;9.102;2022-07-11T07:02:08;4.45;;;1.35;;
27889;SDS011;15238;49.082;9.102;2022-07-11T07:04:08;2.30;;;1.45;;
27889;SDS011;15238;49.082;9.102;2022-07-11T07:06:09;2.10;;;1.20;;
27889;SDS011;15238;49.082;9.102;2022-07-11T07:08:09;3.60;;;1.20;;
27889;SDS011;15238;49.082;9.102;2022-07-11T07:10:10;3.47;;;1.85;;
27889;SDS011;15238;49.082;9.102;2022-07-11T07:12:10;1.42;;;1.23;;
27889;SDS011;15238;49.082;9.102;2022-07-11T07:14:11;1.77;;;1.42;;
27889;SDS011;15238;49.082;9.102;2022-07-11T07:16:11;1.10;;;1.00;;
27889;SDS011;15238;49.082;9.102;2022-07-11T07:18:12;1.77;;;1.00;;
27889;SDS011;15238;49.082;9.102;2022-07-11T07:20:13;2.65;;;1.10;;
27889;SDS011;15238;49.082;9.102;2022-07-11T07:22:13;0.88;;;0.88;;
27889;SDS011;15238;49.082;9.102;2022-07-11T07:24:16;1.58;;;1.05;;
27889;SDS011;15238;49.082;9.102;2022-07-11T07:26:16;1.25;;;0.95;;
27889;SDS011;15238;49.082;9.102;2022-07-11T07:28:17;1.80;;;1.10;;
27889;SDS011;15238;49.082;9.102;2022-07-11T07:30:17;1.85;;;1.08;;
27889;SDS011;15238;49.082;9.102;2022-07-11T07:32:18;3.70;;;1.25;;
27889;SDS011;15238;49.082;9.102;2022-07-11T07:34:19;1.58;;;0.70;;
27889;SDS011;15238;49.082;9.102;2022-07-11T07:36:20;1.25;;;0.90;;
27889;SDS011;15238;49.082;9.102;2022-07-11T07:38:20;3.78;;;0.57;;
27889;SDS011;15238;49.082;9.102;2022-07-11T07:40:21;2.85;;;0.75;;
27889;SDS011;15238;49.082;9.102;2022-07-11T07:42:22;1.45;;;1.00;;
27889;SDS011;15238;49.082;9.102;2022-07-11T07:44:23;2.38;;;1.00;;
27889;SDS011;15238;49.082;9.102;2022-07-11T07:46:23;1.75;;;0.82;;
27889;SDS011;15238;49.082;9.102;2022-07-11T07:48:24;2.47;;;0.90;;
27889;SDS011;15238;49.082;9.102;2022-07-11T07:50:24;2.35;;;1.20;;
27889;SDS011;15238;49.082;9.102;2022-07-11T07:52:25;2.58;;;1.30;;
27889;SDS011;15238;49.082;9.102;2022-07-11T07:54:25;3.13;;;1.60;;
27889;SDS011;15238;49.082;9.102;2022-07-11T07:56:26;3.08;;;1.33;;
27889;SDS011;15238;49.082;9.102;2022-07-11T07:58:26;4.13;;;1.70;;
27889;SDS011;15238;49.082;9.102;2022-07-11T08:00:27;1.17;;;1.08;;
27889;SDS011;15238;49.082;9.102;2022-07-11T08:02:46;3.75;;;1.67;;
27889;SDS011;15238;49.082;9.102;2022-07-11T08:04:48;3.30;;;1.50;;
27889;SDS011;15238;49.082;9.102;2022-07-11T08:06:49;2.83;;;1.33;;
27889;SDS011;15238;49.082;9.102;2022-07-11T08:08:50;4.15;;;1.83;;
27889;SDS011;15238;49.082;9.102;2022-07-11T08:10:51;2.78;;;1.42;;
27889;SDS011;15238;49.082;9.102;2022-07-11T08:12:52;2.78;;;1.55;;
27889;SDS011;15238;49.082;9.102;2022-07-11T08:14:52;4.70;;;1.50;;
27889;SDS011;15238;49.082;9.102;2022-07-11T08:16:53;3.83;;;1.60;;
27889;SDS011;15238;49.082;9.102;2022-07-11T08:18:53;2.25;;;1.27;;
27889;SDS011;15238;49.082;9.102;2022-07-11T08:20:55;5.53;;;2.15;;
27889;SDS011;15238;49.082;9.102;2022-07-11T08:22:59;3.60;;;1.60;;
27889;SDS011;15238;49.082;9.102;2022-07-11T08:25:00;2.83;;;1.40;;
27889;SDS011;15238;49.082;9.102;2022-07-11T08:27:01;3.33;;;1.33;;
27889;SDS011;15238;49.082;9.102;2022-07-11T08:29:03;3.13;;;1.75;;
27889;SDS011;15238;49.082;9.102;2022-07-11T08:31:04;3.65;;;1.20;;
27889;SDS011;15238;49.082;9.102;2022-07-11T08:33:04;1.77;;;1.45;;
27889;SDS011;15238;49.082;9.102;2022-07-11T08:35:05;3.95;;;1.67;;
27889;SDS011;15238;49.082;9.102;2022-07-11T08:37:06;4.50;;;1.55;;
27889;SDS011;15238;49.082;9.102;2022-07-11T08:39:07;2.65;;;1.45;;
27889;SDS011;15238;49.082;9.102;2022-07-11T08:41:07;2.90;;;1.40;;
27889;SDS011;15238;49.082;9.102;2022-07-11T08:43:14;3.97;;;1.70;;
27889;SDS011;15238;49.082;9.102;2022-07-11T08:45:16;7.57;;;1.70;;
27889;SDS011;15238;49.082;9.102;2022-07-11T08:47:17;1.63;;;1.20;;
27889;SDS011;15238;49.082;9.102;2022-07-11T08:49:19;2.72;;;1.10;;
27889;SDS011;15238;49.082;9.102;2022-07-11T08:51:20;3.67;;;1.30;;
27889;SDS011;15238;49.082;9.102;2022-07-11T08:53:23;5.85;;;1.50;;
27889;SDS011;15238;49.082;9.102;2022-07-11T08:55:24;3.63;;;1.52;;
27889;SDS011;15238;49.082;9.102;2022-07-11T08:57:25;3.40;;;1.30;;
27889;SDS011;15238;49.082;9.102;2022-07-11T08:59:26;2.67;;;1.40;;
27889;SDS011;15238;49.082;9.102;2022-07-11T09:01:34;3.20;;;1.25;;
27889;SDS011;15238;49.082;9.102;2022-07-11T09:03:36;3.55;;;1.75;;
27889;SDS011;15238;49.082;9.102;2022-07-11T09:05:37;3.05;;;1.42;;
27889;SDS011;15238;49.082;9.102;2022-07-11T09:07:48;1.98;;;1.40;;
27889;SDS011;15238;49.082;9.102;2022-07-11T09:09:49;1.88;;;1.40;;
27889;SDS011;15238;49.082;9.102;2022-07-11T09:11:54;2.50;;;1.30;;
27889;SDS011;15238;49.082;9.102;2022-07-11T09:13:55;2.50;;;1.23;;
27889;SDS011;15238;49.082;9.102;2022-07-11T09:16:03;7.18;;;1.48;;
27889;SDS011;15238;49.082;9.102;2022-07-11T09:20:24;2.20;;;1.40;;
27889;SDS011;15238;49.082;9.102;2022-07-11T09:22:25;6.85;;;1.38;;
27889;SDS011;15238;49.082;9.102;2022-07-11T09:24:58;5.35;;;1.55;;
27889;SDS011;15238;49.082;9.102;2022-07-11T09:27:19;2.65;;;1.40;;
27889;SDS011;15238;49.082;9.102;2022-07-11T09:29:22;7.95;;;1.30;;
27889;SDS011;15238;49.082;9.102;2022-07-11T09:31:24;4.35;;;1.55;;
27889;SDS011;15238;49.082;9.102;2022-07-11T09:33:28;4.82;;;1.42;;
27889;SDS011;15238;49.082;9.102;2022-07-11T09:35:33;8.23;;;1.65;;
27889;SDS011;15238;49.082;9.102;2022-07-11T09:37:41;2.78;;;1.63;;
27889;SDS011;15238;49.082;9.102;2022-07-11T09:39:43;2.90;;;1.48;;
27889;SDS011;15238;49.082;9.102;2022-07-11T09:41:45;1.67;;;1.25;;
27889;SDS011;15238;49.082;9.102;2022-07-11T09:43:47;5.15;;;1.63;;
27889;SDS011;15238;49.082;9.102;2022-07-11T09:45:50;3.30;;;1.23;;
27889;SDS011;15238;49.082;9.102;2022-07-11T09:47:52;2.90;;;1.40;;
27889;SDS011;15238;49.082;9.102;2022-07-11T09:49:54;2.30;;;1.33;;
27889;SDS011;15238;49.082;9.102;2022-07-11T09:52:00;6.82;;;1.40;;
27889;SDS011;15238;49.082;9.102;2022-07-11T09:54:12;2.97;;;1.50;;
27889;SDS011;15238;49.082;9.102;2022-07-11T09:56:13;3.83;;;1.83;;
27889;SDS011;15238;49.082;9.102;2022-07-11T09:58:15;4.68;;;1.60;;
27889;SDS011;15238;49.082;9.102;2022-07-11T10:00:16;2.30;;;1.35;;
27889;SDS011;15238;49.082;9.102;2022-07-11T10:02:17;8.10;;;1.90;;
27889;SDS011;15238;49.082;9.102;2022-07-11T10:04:18;1.73;;;1.10;;
27889;SDS011;15238;49.082;9.102;2022-07-11T10:06:20;3.33;;;1.52;;
27889;SDS011;15238;49.082;9.102;2022-07-11T10:08:22;2.15;;;1.40;;
27889;SDS011;15238;49.082;9.102;2022-07-11T10:10:22;2.50;;;1.20;;
27889;SDS011;15238;49.082;9.102;2022-07-11T10:12:24;3.33;;;1.10;;
27889;SDS011;15238;49.082;9.102;2022-07-11T10:14:25;3.05;;;1.05;;
27889;SDS011;15238;49.082;9.102;2022-07-11T10:16:43;2.42;;;1.20;;
27889;SDS011;15238;49.082;9.102;2022-07-11T10:21:14;3.13;;;1.17;;
27889;SDS011;15238;49.082;9.102;2022-07-11T10:23:28;2.83;;;1.30;;
27889;SDS011;15238;49.082;9.102;2022-07-11T10:25:42;4.93;;;1.50;;
27889;SDS011;15238;49.082;9.102;2022-07-11T10:27:54;6.50;;;1.63;;
27889;SDS011;15238;49.082;9.102;2022-07-11T10:30:06;4.00;;;1.27;;
27889;SDS011;15238;49.082;9.102;2022-07-11T10:32:07;2.70;;;1.10;;
27889;SDS011;15238;49.082;9.102;2022-07-11T10:34:10;4.75;;;1.80;;
27889;SDS011;15238;49.082;9.102;2022-07-11T10:36:25;3.53;;;1.70;;
27889;SDS011;15238;49.082;9.102;2022-07-11T10:38:27;3.08;;;1.10;;
27889;SDS011;15238;49.082;9.102;2022-07-11T10:41:00;2.80;;;1.10;;
27889;SDS011;15238;49.082;9.102;2022-07-11T10:42:55;1.45;;;1.05;;
27889;SDS011;15238;49.082;9.102;2022-07-11T10:44:56;4.60;;;1.35;;
27889;SDS011;15238;49.082;9.102;2022-07-11T10:46:57;2.70;;;1.27;;
27889;SDS011;15238;49.082;9.102;2022-07-11T10:51:24;2.88;;;1.02;;
27889;SDS011;15238;49.082;9.102;2022-07-11T10:53:46;2.13;;;1.25;;
27889;SDS011;15238;49.082;9.102;2022-07-11T10:58:08;5.05;;;1.55;;
27889;SDS011;15238;49.082;9.102;2022-07-11T11:00:20;5.78;;;1.50;;
27889;SDS011;15238;49.082;9.102;2022-07-11T11:02:21;5.35;;;1.58;;
27889;SDS011;15238;49.082;9.102;2022-07-11T11:06:56;1.95;;;1.40;;
27889;SDS011;15238;49.082;9.102;2022-07-11T11:08:57;3.55;;;1.35;;
27889;SDS011;15238;49.082;9.102;2022-07-11T11:10:58;3.97;;;1.33;;
27889;SDS011;15238;49.082;9.102;2022-07-11T11:17:38;3.88;;;1.55;;
27889;SDS011;15238;49.082;9.102;2022-07-11T11:21:59;3.72;;;1.60;;
27889;SDS011;15238;49.082;9.102;2022-07-11T11:24:02;1.98;;;1.50;;
27889;SDS011;15238;49.082;9.102;2022-07-11T11:28:11;1.67;;;1.27;;
27889;SDS011;15238;49.082;9.102;2022-07-11T11:30:20;5.00;;;1.25;;
27889;SDS011;15238;49.082;9.102;2022-07-11T11:32:22;4.15;;;1.40;;
27889;SDS011;15238;49.082;9.102;2022-07-11T11:34:29;2.42;;;1.00;;
27889;SDS011;15238;49.082;9.102;2022-07-11T11:36:33;2.10;;;1.35;;
27889;SDS011;15238;49.082;9.102;2022-07-11T11:38:34;1.85;;;1.20;;
27889;SDS011;15238;49.082;9.102;2022-07-11T11:40:50;2.95;;;1.38;;
27889;SDS011;15238;49.082;9.102;2022-07-11T11:42:51;1.98;;;1.38;;
27889;SDS011;15238;49.082;9.102;2022-07-11T11:44:52;2.65;;;1.58;;
27889;SDS011;15238;49.082;9.102;2022-07-11T11:46:55;2.38;;;1.45;;
27889;SDS011;15238;49.082;9.102;2022-07-11T11:48:56;4.50;;;1.27;;
27889;SDS011;15238;49.082;9.102;2022-07-11T11:51:10;3.17;;;1.60;;
27889;SDS011;15238;49.082;9.102;2022-07-11T11:53:13;1.85;;;1.35;;
27889;SDS011;15238;49.082;9.102;2022-07-11T11:55:15;7.13;;;1.58;;
27889;SDS011;15238;49.082;9.102;2022-07-11T11:57:19;2.20;;;1.15;;
27889;SDS011;15238;49.082;9.102;2022-07-11T11:59:28;1.98;;;1.40;;
27889;SDS011;15238;49.082;9.102;2022-07-11T12:01:32;1.45;;;1.05;;
27889;SDS011;15238;49.082;9.102;2022-07-11T12:03:50;2.78;;;1.15;;
27889;SDS011;15238;49.082;9.102;2022-07-11T12:05:58;3.38;;;1.33;;
27889;SDS011;15238;49.082;9.102;2022-07-11T12:07:58;2.80;;;0.90;;
27889;SDS011;15238;49.082;9.102;2022-07-11T12:09:59;4.47;;;1.38;;
27889;SDS011;15238;49.082;9.102;2022-07-11T12:12:03;1.40;;;1.10;;
27889;SDS011;15238;49.082;9.102;2022-07-11T12:16:23;2.17;;;1.15;;
27889;SDS011;15238;49.082;9.102;2022-07-11T12:18:39;2.60;;;1.35;;
27889;SDS011;15238;49.082;9.102;2022-07-11T12:20:41;4.38;;;1.45;;
27889;SDS011;15238;49.082;9.102;2022-07-11T12:22:43;2.13;;;1.10;;
27889;SDS011;15238;49.082;9.102;2022-07-11T12:24:48;2.33;;;1.27;;
27889;SDS011;15238;49.082;9.102;2022-07-11T12:26:49;1.45;;;1.20;;
27889;SDS011;15238;49.082;9.102;2022-07-11T12:29:09;2.30;;;1.20;;
27889;SDS011;15238;49.082;9.102;2022-07-11T12:31:11;1.67;;;1.10;;
27889;SDS011;15238;49.082;9.102;2022-07-11T12:33:13;1.50;;;1.10;;
27889;SDS011;15238;49.082;9.102;2022-07-11T12:35:14;3.72;;;1.30;;
27889;SDS011;15238;49.082;9.102;2022-07-11T12:37:17;1.85;;;1.30;;
27889;SDS011;15238;49.082;9.102;2022-07-11T12:39:25;2.55;;;1.10;;